Palmer, PR (00721)

2:09 AM AST on August 20, 2014 (GMT -0400)
Ciudad Jardin | Change Station
CLOSE
Current Station
Personal Weather Station
Location: Carolina, PR
Elevation: 10 ft
Nearby Weather Stations

Elev 10 ft 18.37 °N, 65.93 °W | Updated 8 minutes ago

Rain
Rain
77.8 °F
Feels Like 80 °F
N
0.0
Wind Variable Wind from SE
Gusts 3.0 mph

Today
High -- | Low -- °F
--% Chance of Precip.
Yesterday
High -- | Low -- °F
Precip. -- in
6:06 AM 6:46 PM
Waning Crescent, 24% visible
Pressure 29.98 in
Visibility 10.0 miles
Clouds Mostly Cloudy 3200 ft
Heat Index 80 °F
Dew Point 76 °F
Humidity 94%
Rainfall 0.07 in
Snow Depth Not available.
UV 0 out of 12
Pollen Not available.
Air Quality Not available.
Flu Activity Not available.
METAR TJSJ 200556Z 23003KT 10SM BKN032 26/24 A2998 RMK AO2 RAB0459E42 SLP152 FRQ LTGICCC DSNT NW CB DSNT NW P0005 60012 T02610244 10289 20256 56010

More Conditions Fewer Conditions

Pressure 29.98 in
Visibility 10.0 miles
Clouds Mostly Cloudy 3200 ft
Heat Index 80 °F
Dew Point 76 °F
Humidity 94%
Rainfall 0.07 in
Snow Depth Not available.
UV 0 out of 12
Pollen Not available.
Air Quality Not available.
Flu Activity Not available.
METAR TJSJ 200556Z 23003KT 10SM BKN032 26/24 A2998 RMK AO2 RAB0459E42 SLP152 FRQ LTGICCC DSNT NW CB DSNT NW P0005 60012 T02610244 10289 20256 56010

More Conditions Fewer Conditions

Nowcast | as of 1:05 am AST on August 20, 2014

Showers with thunderstorms will continue to move inland affecting portions of the northern half of the island during the next three hours or so. Therefore...locally heavy rain...strong gusty winds... frequent lightning...ponding of water on roadways...reduced visibilities and hazardous driving conditions are expected as these storms pass by.

×

10-Day Weather Forecast

Almanac

Astronomy

Aug. 20, 2014 Rise Set
Actual Time 6:06 AM AST 6:46 PM AST
Civil Twilight 5:43 AM AST 7:08 PM AST
Nautical Twilight 5:17 AM AST 7:35 PM AST
Astronomical Twilight 4:50 AM AST 8:01 PM AST
Moon 1:57 AM AST 3:13 PM AST
Length of Visible Light 13h 25m
Length of Day
12h 40m
Tomorrow will be 0m 57s shorter.
Waning Crescent, 24% of the Moon is Illuminated
Today
Waning Crescent
Aug 25
New
Sep 2
First Quarter
Sep 8
Full
Sep 15
Last Quarter

Community

WunderPhotos

Upload Photos

1,745,592 photos uploaded!

Nearby

Snow Depth

Station Depth Elevation
No new snow has been reported.

Earthquake Activity

City Distance Mag. Time & Date
No recent earthquake activity has been reported nearby.
Minimum magnitude displayed is 2.5.

Coastal Water Temperatures

Place Temperature
San Juan, PR 84.9 °F
Mayaguez, PR 84.9 °F
Esperanza, PR 84.9 °F

Nearby Weather Stations